Time;durP1;ratioP1;P1;durP2;ratioP2;P2;SDS_P1;SDS_P2;PMS_P1;PMS_P2;Temp;Humidity;BMP_temperature;BMP_pressure;BME280_temperature;BME280_humidity;BME280_pressure;Samples;Min_cycle;Max_cycle;Signal;HPM_P1;HPM_P2
2022/09/08 00:00:41;;;;;;;5.85;3.92;;;15.10;51.10;;;;;;5072252;28;20028;-55
2022/09/08 00:03:10;;;;;;;6.60;4.05;;;15.10;51.10;;;;;;5073047;28;20028;-54
2022/09/08 00:06:08;;;;;;;5.53;3.83;;;15.00;51.70;;;;;;5060473;28;20128;-53
2022/09/08 00:08:34;;;;;;;5.60;3.80;;;15.00;50.90;;;;;;5070143;28;20024;-55
2022/09/08 00:11:04;;;;;;;5.72;4.30;;;15.00;51.10;;;;;;5073616;28;20457;-56
2022/09/08 00:13:32;;;;;;;5.90;3.90;;;15.00;51.00;;;;;;5070512;28;20033;-55
2022/09/08 00:15:58;;;;;;;5.10;3.78;;;15.00;50.90;;;;;;5072210;28;20040;-55
2022/09/08 00:18:24;;;;;;;5.78;4.18;;;15.00;50.90;;;;;;5071230;28;20095;-55
2022/09/08 00:20:50;;;;;;;4.82;4.05;;;15.00;50.80;;;;;;5079034;28;20449;-54
2022/09/08 00:23:16;;;;;;;6.03;4.25;;;15.00;50.80;;;;;;5066175;28;20445;-55
2022/09/08 00:25:42;;;;;;;6.78;4.55;;;15.00;50.70;;;;;;5069837;28;20056;-55
2022/09/08 00:28:07;;;;;;;5.63;4.35;;;15.00;50.60;;;;;;5070831;28;20032;-55
2022/09/08 00:30:33;;;;;;;5.30;3.88;;;15.00;50.60;;;;;;5080910;28;20461;-55
2022/09/08 00:32:59;;;;;;;5.22;4.10;;;15.00;50.60;;;;;;5071378;28;20039;-53
2022/09/08 00:35:25;;;;;;;8.15;4.97;;;15.00;50.60;;;;;;5066598;28;20036;-55
2022/09/08 00:37:52;;;;;;;5.60;4.28;;;14.90;50.60;;;;;;5072087;28;20113;-55
2022/09/08 00:40:18;;;;;;;5.13;4.25;;;14.90;50.60;;;;;;5071477;28;20028;-55
2022/09/08 00:42:44;;;;;;;7.72;4.53;;;14.90;50.60;;;;;;5061451;28;20183;-55
2022/09/08 00:45:12;;;;;;;5.20;4.10;;;14.90;50.50;;;;;;5076997;28;20171;-55
2022/09/08 00:47:58;;;;;;;5.50;4.07;;;14.90;50.50;;;;;;5071574;28;20463;-55
2022/09/08 00:50:27;;;;;;;5.57;3.90;;;14.90;50.50;;;;;;5069651;28;20060;-55
2022/09/08 00:53:00;;;;;;;5.57;4.13;;;14.80;50.60;;;;;;5069760;28;20028;-55
2022/09/08 00:55:30;;;;;;;7.07;4.15;;;14.90;50.70;;;;;;5077830;28;20115;-55
2022/09/08 00:57:56;;;;;;;6.72;3.97;;;14.90;50.60;;;;;;5071553;28;20489;-55
2022/09/08 01:00:22;;;;;;;5.40;4.05;;;14.80;50.70;;;;;;5069275;28;20032;-54
2022/09/08 01:02:48;;;;;;;5.90;4.05;;;14.80;50.70;;;;;;5071749;28;20035;-54
2022/09/08 01:05:18;;;;;;;8.35;4.55;;;14.80;50.70;;;;;;5064604;28;20064;-55
2022/09/08 01:13:27;;;;;;;4.80;3.95;;;14.80;50.80;;;;;;5076915;28;20139;-56
2022/09/08 01:15:55;;;;;;;5.95;3.88;;;14.70;50.90;;;;;;5067046;28;20112;-55
2022/09/08 01:18:21;;;;;;;6.93;4.72;;;14.70;50.80;;;;;;5068163;28;20107;-55
2022/09/08 01:21:51;;;;;;;5.05;3.85;;;14.70;51.00;;;;;;5080025;28;20111;-53
2022/09/08 01:24:17;;;;;;;5.40;3.67;;;14.70;50.80;;;;;;4991256;28;20048;-55
2022/09/08 01:27:22;;;;;;;6.22;4.00;;;14.70;50.90;;;;;;5073958;28;20024;-54
2022/09/08 01:29:52;;;;;;;5.95;4.20;;;14.70;51.00;;;;;;5083269;28;20463;-55
2022/09/08 01:32:19;;;;;;;6.60;4.07;;;14.70;51.00;;;;;;5080699;28;20036;-53
2022/09/08 01:34:45;;;;;;;4.85;3.65;;;14.70;51.10;;;;;;5075311;28;20124;-54
2022/09/08 01:37:12;;;;;;;6.35;4.40;;;14.70;51.10;;;;;;5078875;28;20085;-55
2022/09/08 01:39:38;;;;;;;5.57;4.03;;;14.70;51.20;;;;;;5078232;28;20085;-55
2022/09/08 01:42:05;;;;;;;5.55;4.13;;;14.70;51.30;;;;;;5067651;28;20498;-55
2022/09/08 01:44:32;;;;;;;5.40;4.03;;;14.70;51.30;;;;;;5075342;28;20064;-54
2022/09/08 01:46:58;;;;;;;4.78;3.80;;;14.80;52.00;;;;;;5084143;28;20037;-55
2022/09/08 01:49:24;;;;;;;5.90;3.80;;;14.80;51.40;;;;;;5078755;28;20036;-55
2022/09/08 01:51:50;;;;;;;4.97;3.75;;;14.80;51.40;;;;;;5070224;28;20124;-55
2022/09/08 01:54:16;;;;;;;6.07;3.88;;;14.80;51.40;;;;;;5073712;28;20051;-53
2022/09/08 01:56:42;;;;;;;5.22;3.80;;;14.80;51.60;;;;;;5080791;28;20029;-55
2022/09/08 01:59:07;;;;;;;5.30;3.72;;;14.80;51.50;;;;;;5074972;28;20460;-54
2022/09/08 02:01:33;;;;;;;6.05;4.15;;;14.80;51.60;;;;;;5072176;28;20044;-54
2022/09/08 02:03:59;;;;;;;5.10;4.40;;;14.90;51.60;;;;;;5075575;28;20474;-53
2022/09/08 02:06:24;;;;;;;5.00;3.80;;;14.90;51.50;;;;;;5074869;28;20035;-57
2022/09/08 02:08:51;;;;;;;5.10;3.70;;;14.90;51.60;;;;;;5069545;28;20028;-56
2022/09/08 02:11:17;;;;;;;5.70;4.78;;;14.90;51.60;;;;;;5073656;28;20474;-57
2022/09/08 02:13:43;;;;;;;4.68;3.80;;;14.90;51.70;;;;;;5080681;28;20067;-57
2022/09/08 02:16:11;;;;;;;5.10;4.00;;;14.90;51.60;;;;;;5071906;28;20033;-56
2022/09/08 02:18:38;;;;;;;4.78;3.83;;;14.90;51.80;;;;;;5071977;28;20051;-57
2022/09/08 02:21:10;;;;;;;5.75;4.18;;;14.90;51.80;;;;;;5081390;28;20028;-57
2022/09/08 02:23:37;;;;;;;4.15;3.63;;;14.90;51.90;;;;;;5074971;28;20127;-57
2022/09/08 02:26:03;;;;;;;5.60;3.83;;;14.90;52.10;;;;;;5073932;28;20067;-57
2022/09/08 02:28:30;;;;;;;5.72;3.97;;;14.90;52.10;;;;;;5073710;28;20059;-56
2022/09/08 02:31:03;;;;;;;3.88;3.30;;;14.90;52.20;;;;;;5075876;28;20029;-56
2022/09/08 02:33:30;;;;;;;4.78;3.67;;;14.80;52.30;;;;;;5070925;28;20119;-55
2022/09/08 02:35:56;;;;;;;5.28;4.03;;;14.80;52.30;;;;;;5070441;28;20031;-55
2022/09/08 02:38:23;;;;;;;5.25;3.90;;;14.80;52.50;;;;;;5081712;28;20031;-55
2022/09/08 02:40:49;;;;;;;6.75;4.22;;;14.80;52.50;;;;;;5073306;28;20048;-57
2022/09/08 02:43:15;;;;;;;5.90;3.83;;;14.80;52.60;;;;;;5056313;28;20048;-55
2022/09/08 02:45:41;;;;;;;8.25;4.18;;;14.80;52.80;;;;;;5073748;28;20106;-55
2022/09/08 02:48:08;;;;;;;6.30;4.47;;;14.80;52.90;;;;;;5082603;28;20034;-54
2022/09/08 02:50:34;;;;;;;5.70;4.32;;;14.80;52.80;;;;;;5073850;28;20064;-55
2022/09/08 02:52:59;;;;;;;5.43;4.10;;;14.80;52.80;;;;;;5078180;28;20052;-55
2022/09/08 02:55:26;;;;;;;5.78;3.75;;;14.80;52.90;;;;;;5082570;28;20028;-54
2022/09/08 02:57:52;;;;;;;5.57;3.85;;;14.80;53.00;;;;;;5068919;28;20032;-55
2022/09/08 03:00:19;;;;;;;6.38;3.90;;;14.80;53.20;;;;;;5070653;28;20037;-55
2022/09/08 03:02:46;;;;;;;5.80;4.00;;;14.80;53.20;;;;;;5072413;28;20038;-55
2022/09/08 03:05:12;;;;;;;4.60;3.47;;;14.80;53.20;;;;;;5075531;28;20028;-55
2022/09/08 03:07:38;;;;;;;5.07;3.47;;;14.80;53.30;;;;;;5071747;28;20433;-55
2022/09/08 03:10:06;;;;;;;4.55;3.67;;;14.80;53.30;;;;;;5075593;28;20049;-55
2022/09/08 03:12:32;;;;;;;6.18;3.85;;;14.80;53.40;;;;;;5078911;28;20111;-55
2022/09/08 03:14:58;;;;;;;5.55;3.97;;;14.80;53.50;;;;;;5070338;28;20105;-54
2022/09/08 03:17:24;;;;;;;5.63;3.70;;;14.80;53.50;;;;;;5064128;28;20029;-55
2022/09/08 03:19:50;;;;;;;6.13;4.28;;;14.80;53.60;;;;;;5073527;28;20033;-55
2022/09/08 03:22:17;;;;;;;6.85;4.22;;;14.90;53.60;;;;;;5080636;28;20107;-55
2022/09/08 03:24:43;;;;;;;5.22;3.83;;;14.90;53.60;;;;;;5074762;28;20037;-55
2022/09/08 03:27:09;;;;;;;5.63;3.90;;;14.90;53.60;;;;;;5071911;28;20374;-55
2022/09/08 03:29:35;;;;;;;4.70;3.83;;;14.90;53.70;;;;;;5074462;28;20063;-55
2022/09/08 03:32:01;;;;;;;4.60;3.38;;;14.90;53.80;;;;;;5078863;28;20067;-53
2022/09/08 03:34:27;;;;;;;5.57;3.72;;;14.90;53.90;;;;;;5065339;28;20059;-54
2022/09/08 03:36:53;;;;;;;4.47;3.55;;;14.90;53.90;;;;;;5074941;28;20336;-54
2022/09/08 03:39:19;;;;;;;5.65;3.70;;;14.90;53.90;;;;;;5075484;28;20060;-55
2022/09/08 03:41:44;;;;;;;4.47;3.20;;;14.90;54.00;;;;;;5069158;28;20063;-55
2022/09/08 03:44:10;;;;;;;5.88;3.60;;;15.00;54.20;;;;;;5075019;28;20048;-54
2022/09/08 03:46:36;;;;;;;4.97;3.80;;;15.00;54.20;;;;;;5076136;28;20040;-55
2022/09/08 03:49:02;;;;;;;5.93;3.25;;;15.00;54.30;;;;;;5071842;28;20090;-55
2022/09/08 03:51:28;;;;;;;4.03;3.28;;;15.00;54.40;;;;;;5072359;28;20041;-55
2022/09/08 03:54:46;;;;;;;3.70;3.13;;;15.00;54.40;;;;;;5078983;28;20040;-54
2022/09/08 03:56:42;;;;;;;4.43;3.55;;;15.10;54.60;;;;;;5068120;28;20040;-55
2022/09/08 03:59:08;;;;;;;4.57;3.50;;;15.10;54.60;;;;;;5067634;28;20058;-53
2022/09/08 04:01:34;;;;;;;4.03;3.08;;;15.10;54.80;;;;;;5072458;28;20036;-55
2022/09/08 04:04:00;;;;;;;3.25;2.95;;;15.10;54.80;;;;;;5084536;28;20044;-54
2022/09/08 04:06:25;;;;;;;4.07;3.30;;;15.10;55.00;;;;;;5078743;28;20032;-55
2022/09/08 04:08:52;;;;;;;7.50;3.30;;;15.10;55.20;;;;;;5066333;28;20481;-54
2022/09/08 04:11:17;;;;;;;4.20;3.05;;;15.10;55.20;;;;;;5067839;28;20494;-55
2022/09/08 04:13:43;;;;;;;5.00;3.20;;;15.20;55.30;;;;;;5072497;28;20060;-55
2022/09/08 04:16:08;;;;;;;5.50;3.38;;;15.20;55.40;;;;;;5069358;28;20090;-55
2022/09/08 04:18:34;;;;;;;3.80;3.13;;;15.30;55.40;;;;;;5065142;28;20452;-54
2022/09/08 04:21:02;;;;;;;4.38;3.38;;;15.30;55.50;;;;;;5063710;28;20510;-55
2022/09/08 04:23:29;;;;;;;3.58;3.08;;;15.30;55.60;;;;;;5072216;28;20025;-55
2022/09/08 04:25:59;;;;;;;3.85;2.80;;;15.30;55.60;;;;;;5073099;28;20078;-57
2022/09/08 04:28:25;;;;;;;4.43;3.37;;;15.40;55.80;;;;;;5063239;28;20132;-57
2022/09/08 04:30:51;;;;;;;3.63;3.10;;;15.40;55.80;;;;;;5071377;28;20169;-54
2022/09/08 04:33:17;;;;;;;3.97;3.20;;;15.50;55.90;;;;;;5068332;28;20029;-55
2022/09/08 04:35:42;;;;;;;3.72;3.10;;;15.50;55.90;;;;;;5066190;28;20032;-54
2022/09/08 04:38:08;;;;;;;3.33;3.03;;;15.50;55.90;;;;;;5075188;28;20500;-54
2022/09/08 04:40:34;;;;;;;3.65;3.10;;;15.60;56.00;;;;;;5072252;28;20390;-54
2022/09/08 04:43:00;;;;;;;5.20;3.17;;;15.70;56.00;;;;;;5066046;28;20048;-55
2022/09/08 04:45:25;;;;;;;4.30;3.22;;;15.70;56.00;;;;;;5075069;28;20041;-56
2022/09/08 04:47:51;;;;;;;4.00;3.00;;;15.80;56.00;;;;;;5074901;28;20385;-56
2022/09/08 04:50:17;;;;;;;3.30;2.67;;;15.90;56.10;;;;;;5071925;28;20047;-56
2022/09/08 04:52:42;;;;;;;3.85;3.05;;;15.90;56.10;;;;;;5075099;28;20385;-56
2022/09/08 04:55:10;;;;;;;4.57;2.88;;;15.90;56.10;;;;;;5079973;28;20658;-55
2022/09/08 04:57:36;;;;;;;3.22;2.60;;;16.00;56.10;;;;;;5071501;28;20526;-55
2022/09/08 05:00:03;;;;;;;3.75;2.83;;;16.00;56.20;;;;;;5069336;28;20468;-55
2022/09/08 05:02:29;;;;;;;4.18;2.92;;;16.00;56.30;;;;;;5071230;28;20028;-55
2022/09/08 05:04:55;;;;;;;3.45;2.67;;;16.10;56.40;;;;;;5066691;28;20040;-56
2022/09/08 05:07:20;;;;;;;2.60;2.40;;;16.20;56.40;;;;;;5073218;28;20041;-56
2022/09/08 05:09:46;;;;;;;2.33;2.13;;;16.30;56.40;;;;;;5068478;28;20047;-55
2022/09/08 05:12:12;;;;;;;3.08;2.78;;;16.40;56.30;;;;;;5067803;28;20453;-54
2022/09/08 05:14:37;;;;;;;2.95;2.40;;;16.50;56.50;;;;;;5066820;28;20489;-55
2022/09/08 05:17:03;;;;;;;3.35;2.67;;;16.70;56.40;;;;;;5068483;28;20039;-56
2022/09/08 05:19:29;;;;;;;4.15;2.55;;;16.80;56.30;;;;;;5072330;28;20381;-55
2022/09/08 05:21:55;;;;;;;3.15;2.70;;;17.00;56.20;;;;;;5069844;28;20049;-56
2022/09/08 05:24:21;;;;;;;2.88;2.60;;;17.10;56.20;;;;;;5068870;28;20056;-55
2022/09/08 05:26:47;;;;;;;3.10;2.78;;;17.30;56.20;;;;;;5069521;28;20036;-56
2022/09/08 05:29:12;;;;;;;3.90;2.47;;;17.30;56.20;;;;;;5065986;28;20037;-56
2022/09/08 05:31:38;;;;;;;2.80;2.20;;;17.40;56.10;;;;;;5064272;28;20095;-54
2022/09/08 05:34:04;;;;;;;3.35;2.67;;;17.40;56.10;;;;;;5070409;28;20029;-56
2022/09/08 05:36:35;;;;;;;2.97;2.42;;;17.50;56.20;;;;;;5066079;28;20429;-56
2022/09/08 05:39:02;;;;;;;3.50;2.58;;;17.50;56.20;;;;;;5065799;28;20392;-57
2022/09/08 05:41:30;;;;;;;2.70;2.33;;;17.50;56.20;;;;;;5068498;28;20079;-53
2022/09/08 05:43:57;;;;;;;3.15;2.53;;;17.50;56.30;;;;;;5066457;28;20048;-55
2022/09/08 05:46:25;;;;;;;2.42;2.22;;;17.50;56.30;;;;;;5062904;28;20521;-55
2022/09/08 05:48:57;;;;;;;3.28;2.55;;;17.50;56.30;;;;;;5063619;28;20055;-54
2022/09/08 05:51:23;;;;;;;2.63;2.17;;;17.50;56.40;;;;;;5054466;28;20121;-55
2022/09/08 05:53:50;;;;;;;3.10;1.98;;;17.60;56.50;;;;;;5060519;28;20033;-55
2022/09/08 05:56:18;;;;;;;4.43;2.50;;;17.60;56.50;;;;;;5058481;28;20059;-55
2022/09/08 05:58:52;;;;;;;2.72;2.28;;;17.60;56.50;;;;;;5057764;28;20458;-55
2022/09/08 06:01:20;;;;;;;3.70;2.80;;;17.70;56.60;;;;;;5060799;28;20063;-55
2022/09/08 06:03:49;;;;;;;3.80;2.83;;;17.80;56.60;;;;;;5057810;28;20036;-55
2022/09/08 06:06:16;;;;;;;3.78;2.78;;;17.80;56.50;;;;;;5055851;28;20029;-55
2022/09/08 06:08:42;;;;;;;4.18;2.80;;;17.90;56.50;;;;;;5059484;28;20028;-55
2022/09/08 06:11:08;;;;;;;3.00;2.55;;;17.90;56.50;;;;;;5057360;28;20509;-55
2022/09/08 06:13:35;;;;;;;3.13;2.50;;;18.00;56.50;;;;;;5054484;28;20037;-54
2022/09/08 06:16:02;;;;;;;3.25;2.60;;;18.20;56.50;;;;;;5059128;28;20033;-55
2022/09/08 06:18:28;;;;;;;2.92;2.42;;;18.20;56.50;;;;;;5046866;28;20032;-57
2022/09/08 06:20:53;;;;;;;4.55;2.78;;;18.30;56.50;;;;;;5052268;28;20029;-56
2022/09/08 06:23:20;;;;;;;4.43;2.70;;;18.40;56.50;;;;;;5061075;28;20043;-55
2022/09/08 06:25:46;;;;;;;2.78;2.30;;;18.50;56.40;;;;;;5054189;28;20041;-54
2022/09/08 06:28:38;;;;;;;2.95;2.55;;;18.60;56.50;;;;;;5055923;28;20036;-55
2022/09/08 06:31:07;;;;;;;2.97;2.60;;;18.70;56.60;;;;;;5060374;28;20067;-54
2022/09/08 06:33:40;;;;;;;3.17;2.65;;;18.80;56.60;;;;;;5059803;28;20028;-55
2022/09/08 06:36:32;;;;;;;3.95;2.28;;;18.80;56.50;;;;;;5054294;28;20088;-55
2022/09/08 06:39:01;;;;;;;3.28;2.47;;;18.90;56.50;;;;;;5058222;28;20488;-56
2022/09/08 06:41:31;;;;;;;4.07;2.88;;;18.90;56.50;;;;;;5056687;28;20036;-55
2022/09/08 06:44:04;;;;;;;3.78;2.55;;;18.90;56.50;;;;;;5061218;28;20513;-57
2022/09/08 06:46:34;;;;;;;3.55;2.70;;;18.90;56.50;;;;;;5061106;28;20036;-57
2022/09/08 06:48:59;;;;;;;3.70;2.78;;;18.90;56.70;;;;;;5062703;28;20095;-56
2022/09/08 06:51:47;;;;;;;4.72;2.50;;;18.90;56.70;;;;;;5056829;28;20509;-56
2022/09/08 06:54:42;;;;;;;2.83;2.53;;;18.90;56.60;;;;;;5057748;28;20492;-55
2022/09/08 06:57:34;;;;;;;3.88;2.78;;;18.90;56.60;;;;;;5058832;28;20119;-56
2022/09/08 07:00:20;;;;;;;3.97;3.25;;;18.90;56.60;;;;;;5057541;28;20039;-56
2022/09/08 07:03:23;;;;;;;3.88;2.83;;;18.90;56.70;;;;;;5064508;28;20026;-57
2022/09/08 07:06:02;;;;;;;3.22;2.70;;;18.90;56.80;;;;;;5059519;28;20043;-56
2022/09/08 07:08:43;;;;;;;2.72;2.33;;;18.80;56.90;;;;;;5048490;28;20297;-55
2022/09/08 07:11:36;;;;;;;3.92;2.67;;;18.80;56.90;;;;;;5055800;28;20074;-56
2022/09/08 07:14:40;;;;;;;5.03;2.45;;;18.80;57.10;;;;;;5057189;28;20396;-56
2022/09/08 07:17:21;;;;;;;2.85;2.30;;;18.80;57.40;;;;;;5051620;28;20035;-57
2022/09/08 07:19:51;;;;;;;;;;;18.80;57.30;;;;;;5054419;28;20033;-54
2022/09/08 07:22:32;;;;;;;3.60;2.78;;;18.70;57.70;;;;;;5049261;28;19912;-56
2022/09/08 07:25:28;;;;;;;4.70;2.83;;;18.70;57.50;;;;;;5050558;28;20067;-54
2022/09/08 07:28:02;;;;;;;4.70;3.28;;;18.80;57.70;;;;;;5048597;28;20663;-56
2022/09/08 07:30:28;;;;;;;3.45;2.92;;;18.80;57.80;;;;;;5048455;28;20032;-57
2022/09/08 07:33:10;;;;;;;3.65;2.95;;;18.80;57.80;;;;;;5051196;28;20626;-56
2022/09/08 07:35:45;;;;;;;5.18;3.25;;;18.90;58.00;;;;;;5043616;28;20461;-56
2022/09/08 07:38:34;;;;;;;6.47;3.85;;;18.90;58.00;;;;;;5046345;28;20083;-56
2022/09/08 07:41:01;;;;;;;4.82;3.60;;;18.90;58.20;;;;;;5030877;28;20040;-56
2022/09/08 07:43:26;;;;;;;3.78;3.20;;;18.90;58.30;;;;;;5048078;28;20539;-55
2022/09/08 07:46:01;;;;;;;3.30;2.85;;;19.00;58.60;;;;;;5045165;28;20437;-56
2022/09/08 07:48:44;;;;;;;4.00;2.92;;;19.10;58.60;;;;;;5044564;28;20029;-57
2022/09/08 07:51:16;;;;;;;3.70;3.00;;;19.20;58.60;;;;;;5046293;28;20867;-56
2022/09/08 07:53:49;;;;;;;3.67;3.05;;;19.30;58.70;;;;;;5052235;28;20028;-56
2022/09/08 07:56:36;;;;;;;4.03;2.67;;;19.40;58.80;;;;;;5046882;28;20047;-57
2022/09/08 07:59:13;;;;;;;2.88;2.25;;;19.60;59.00;;;;;;5047153;28;20036;-56
2022/09/08 08:01:51;;;;;;;3.08;2.67;;;19.80;58.90;;;;;;5045105;28;20170;-56
2022/09/08 08:04:41;;;;;;;2.03;1.88;;;19.90;58.90;;;;;;5044068;28;20658;-56
2022/09/08 08:07:14;;;;;;;2.97;2.35;;;20.10;58.70;;;;;;5042369;28;20048;-55
2022/09/08 08:10:05;;;;;;;3.30;2.15;;;20.30;58.60;;;;;;5034303;28;20116;-54
2022/09/08 08:12:48;;;;;;;3.10;2.53;;;20.40;58.60;;;;;;5039082;28;20041;-55
2022/09/08 08:15:19;;;;;;;4.30;3.17;;;20.60;58.40;;;;;;5037236;28;20036;-55
2022/09/08 08:17:53;;;;;;;3.60;3.20;;;20.70;58.40;;;;;;5039972;28;20137;-57
2022/09/08 08:20:40;;;;;;;3.25;2.88;;;20.70;58.30;;;;;;5043963;28;20926;-55
2022/09/08 08:23:12;;;;;;;3.85;2.60;;;20.80;58.40;;;;;;5041248;28;20040;-56
2022/09/08 08:26:01;;;;;;;3.00;2.40;;;20.80;58.50;;;;;;5042346;28;20121;-55
2022/09/08 08:28:41;;;;;;;3.05;2.40;;;20.70;58.50;;;;;;5041808;28;20527;-55
2022/09/08 08:31:24;;;;;;;3.17;2.60;;;20.70;58.60;;;;;;5046876;28;20052;-56
2022/09/08 08:34:23;;;;;;;3.13;2.60;;;20.70;58.80;;;;;;5049439;28;20028;-57
2022/09/08 08:36:51;;;;;;;3.65;2.80;;;20.60;59.00;;;;;;5043229;28;20033;-55
2022/09/08 08:39:22;;;;;;;4.28;3.03;;;20.60;58.90;;;;;;5053204;28;20063;-56
2022/09/08 08:42:06;;;;;;;2.85;2.30;;;20.60;59.10;;;;;;5053866;28;20082;-55
2022/09/08 08:44:37;;;;;;;2.58;2.35;;;20.60;59.20;;;;;;5042213;28;20058;-55
2022/09/08 08:47:35;;;;;;;2.53;2.30;;;20.60;59.20;;;;;;5050418;28;20122;-57
2022/09/08 08:50:12;;;;;;;2.92;2.60;;;20.70;59.20;;;;;;5054949;28;20036;-54
2022/09/08 08:53:28;;;;;;;3.42;2.53;;;20.70;59.30;;;;;;5046145;28;20040;-55
2022/09/08 08:56:23;;;;;;;2.97;2.30;;;20.70;59.30;;;;;;5045757;28;20093;-57
2022/09/08 08:58:57;;;;;;;2.75;2.38;;;20.70;59.30;;;;;;5035262;28;21197;-56
2022/09/08 09:01:50;;;;;;;4.30;2.15;;;20.70;59.40;;;;;;5040163;28;20163;-54
2022/09/08 09:04:34;;;;;;;3.38;1.95;;;20.60;59.50;;;;;;5041495;28;20118;-55
2022/09/08 09:07:39;;;;;;;1.92;1.83;;;20.70;59.60;;;;;;5041314;28;20040;-56
2022/09/08 09:10:38;;;;;;;3.25;2.60;;;20.70;59.70;;;;;;5049052;28;20037;-55
2022/09/08 09:13:14;;;;;;;2.47;2.28;;;20.70;59.60;;;;;;5046766;28;20116;-57
2022/09/08 09:15:55;;;;;;;3.10;2.50;;;20.70;59.60;;;;;;5042055;28;20033;-56
2022/09/08 09:18:26;;;;;;;2.50;2.08;;;20.70;59.60;;;;;;5050293;28;20033;-56
2022/09/08 09:21:09;;;;;;;3.00;2.70;;;20.70;59.60;;;;;;5046904;28;20417;-57
2022/09/08 09:23:40;;;;;;;2.78;2.28;;;20.70;59.70;;;;;;5041306;28;20586;-56
2022/09/08 09:26:18;;;;;;;2.55;2.35;;;20.70;59.70;;;;;;5040391;28;20032;-55
2022/09/08 09:29:08;;;;;;;2.75;2.45;;;20.70;59.70;;;;;;5043917;28;20044;-56
2022/09/08 09:31:53;;;;;;;3.13;2.28;;;20.70;59.90;;;;;;5040427;28;20064;-55
2022/09/08 09:34:34;;;;;;;2.97;2.40;;;20.70;59.70;;;;;;5042061;28;20032;-56
2022/09/08 09:37:33;;;;;;;3.38;2.70;;;20.60;59.70;;;;;;5054365;28;20028;-55
2022/09/08 09:40:01;;;;;;;3.05;2.38;;;20.60;59.80;;;;;;5052721;28;20443;-57
2022/09/08 09:43:07;;;;;;;2.40;2.20;;;20.60;59.80;;;;;;5048786;28;20123;-56
2022/09/08 09:45:52;;;;;;;3.15;2.35;;;20.50;60.00;;;;;;5047603;28;20561;-57
2022/09/08 09:48:29;;;;;;;2.95;2.42;;;20.40;60.00;;;;;;5050439;28;20421;-56
2022/09/08 09:51:16;;;;;;;3.03;2.50;;;20.40;60.20;;;;;;5052069;28;20047;-58
2022/09/08 09:53:54;;;;;;;4.07;2.78;;;20.30;60.20;;;;;;5048425;28;20845;-58
2022/09/08 09:56:40;;;;;;;4.82;2.97;;;20.20;60.30;;;;;;5051374;28;20037;-57
2022/09/08 09:59:22;;;;;;;2.58;2.38;;;20.20;60.50;;;;;;5052865;28;20032;-56
2022/09/08 10:02:03;;;;;;;;;;;20.10;60.50;;;;;;5048895;28;20037;-56
2022/09/08 10:05:06;;;;;;;2.50;2.30;;;20.00;61.00;;;;;;5050231;28;19924;-56
2022/09/08 10:08:05;;;;;;;2.85;2.30;;;20.00;60.80;;;;;;5048433;28;20265;-54
2022/09/08 10:10:40;;;;;;;3.15;2.55;;;19.90;60.90;;;;;;5042461;28;21286;-54
2022/09/08 10:13:30;;;;;;;3.33;2.30;;;19.90;61.10;;;;;;5043457;28;20040;-55
2022/09/08 10:16:11;;;;;;;3.75;2.50;;;19.80;61.20;;;;;;5044915;28;20352;-54
2022/09/08 10:18:57;;;;;;;3.00;2.38;;;19.80;61.40;;;;;;5051292;28;20176;-56
2022/09/08 10:21:37;;;;;;;5.45;2.78;;;19.80;61.60;;;;;;5037090;28;20032;-56
2022/09/08 10:24:37;;;;;;;2.80;2.58;;;19.80;61.80;;;;;;5060649;28;20039;-55
2022/09/08 10:27:24;;;;;;;2.60;2.40;;;19.80;61.80;;;;;;5056807;28;20048;-55
2022/09/08 10:30:08;;;;;;;3.03;2.40;;;19.80;61.90;;;;;;5055755;28;21597;-54
2022/09/08 10:32:39;;;;;;;3.38;2.67;;;19.80;62.10;;;;;;5054391;28;20044;-54
2022/09/08 10:35:34;;;;;;;;;;;19.80;62.10;;;;;;5058038;28;20029;-55
2022/09/08 10:38:00;;;;;;;3.00;2.60;;;19.80;62.40;;;;;;5057365;28;19908;-55
2022/09/08 10:40:26;;;;;;;2.50;2.30;;;19.80;61.90;;;;;;5060239;28;20052;-54
2022/09/08 10:42:54;;;;;;;2.75;2.55;;;19.90;62.10;;;;;;5065657;28;20143;-52
2022/09/08 10:45:57;;;;;;;3.55;2.83;;;19.90;62.10;;;;;;5059230;28;20037;-54
2022/09/08 10:48:48;;;;;;;3.80;2.97;;;20.00;62.20;;;;;;5061922;28;20445;-57
2022/09/08 10:51:28;;;;;;;3.60;2.33;;;20.00;62.20;;;;;;5055535;28;20385;-56
2022/09/08 10:54:20;;;;;;;5.15;2.90;;;20.10;62.20;;;;;;5049431;28;20040;-54
2022/09/08 10:56:48;;;;;;;3.58;2.65;;;20.10;62.20;;;;;;5054402;28;20040;-56
2022/09/08 10:59:38;;;;;;;3.67;2.65;;;20.20;62.20;;;;;;5052538;28;20032;-55
2022/09/08 11:02:27;;;;;;;2.90;2.50;;;20.30;62.10;;;;;;5048123;28;20028;-55
2022/09/08 11:05:17;;;;;;;2.58;2.38;;;20.30;62.00;;;;;;5048359;28;21136;-54
2022/09/08 11:08:02;;;;;;;3.05;2.63;;;20.50;62.10;;;;;;5050532;28;20121;-56
2022/09/08 11:10:37;;;;;;;4.07;2.50;;;20.50;62.00;;;;;;5048581;28;20033;-53
2022/09/08 11:13:11;;;;;;;2.53;2.13;;;20.60;62.10;;;;;;5036514;28;20041;-55
2022/09/08 11:16:02;;;;;;;2.60;2.25;;;20.60;62.00;;;;;;5047748;28;20048;-54
2022/09/08 11:18:51;;;;;;;3.05;2.38;;;20.60;62.00;;;;;;5056718;28;20036;-53
2022/09/08 11:21:27;;;;;;;2.75;2.50;;;20.60;61.90;;;;;;5058033;28;20031;-54
2022/09/08 11:24:08;;;;;;;3.38;2.58;;;20.70;62.00;;;;;;5056090;28;20064;-55
2022/09/08 11:26:34;;;;;;;;;;;20.70;62.20;;;;;;5057249;28;20111;-56
2022/09/08 11:29:19;;;;;;;3.08;2.30;;;20.70;62.30;;;;;;5043142;28;19944;-58
2022/09/08 11:32:01;;;;;;;2.65;2.08;;;20.70;62.00;;;;;;5047643;28;20508;-54
2022/09/08 11:35:07;;;;;;;2.78;2.30;;;20.80;61.90;;;;;;5049302;28;20020;-56
2022/09/08 11:37:57;;;;;;;4.72;2.75;;;20.80;61.70;;;;;;5046118;28;20020;-55
2022/09/08 11:40:50;;;;;;;2.22;2.05;;;20.80;61.70;;;;;;5041394;28;20041;-54
2022/09/08 11:43:52;;;;;;;2.60;2.40;;;20.80;61.70;;;;;;5041743;28;20118;-55
2022/09/08 11:46:43;;;;;;;3.53;2.30;;;20.80;61.70;;;;;;4969502;28;20145;-53
2022/09/08 11:49:15;;;;;;;;;;;20.80;61.80;;;;;;5045201;28;20040;-55
2022/09/08 11:51:47;;;;;;;3.03;2.17;;;20.80;62.10;;;;;;5043507;28;19931;-53
2022/09/08 11:54:59;;;;;;;2.50;2.30;;;20.90;61.80;;;;;;5045872;28;20044;-56
2022/09/08 11:57:30;;;;;;;3.80;2.40;;;20.90;61.90;;;;;;5046086;28;22472;-55
2022/09/08 12:00:07;;;;;;;2.95;2.60;;;20.90;61.80;;;;;;5038803;28;20398;-54
2022/09/08 12:02:51;;;;;;;2.60;2.25;;;20.90;61.60;;;;;;5048686;28;20064;-56
2022/09/08 12:05:51;;;;;;;3.05;2.20;;;20.90;61.50;;;;;;5049691;28;20147;-54
2022/09/08 12:08:44;;;;;;;2.95;2.20;;;20.90;61.50;;;;;;5045959;28;20040;-55
2022/09/08 12:11:15;;;;;;;3.05;2.50;;;20.90;61.50;;;;;;5038024;28;20038;-56
2022/09/08 12:13:54;;;;;;;3.05;2.67;;;20.90;61.60;;;;;;5046742;28;20350;-56
2022/09/08 12:16:54;;;;;;;3.65;2.75;;;20.90;61.50;;;;;;5042635;28;20254;-55
2022/09/08 12:19:42;;;;;;;2.07;1.97;;;20.90;61.40;;;;;;5050023;28;20517;-55
2022/09/08 12:22:17;;;;;;;2.78;2.47;;;20.80;61.40;;;;;;5038315;28;20036;-54
2022/09/08 12:25:03;;;;;;;3.83;2.95;;;20.80;61.40;;;;;;5043160;28;20366;-54
2022/09/08 12:27:56;;;;;;;2.60;2.40;;;20.80;61.50;;;;;;5037032;28;20651;-57
2022/09/08 12:30:53;;;;;;;2.50;2.30;;;20.80;61.70;;;;;;5043049;28;21828;-57
2022/09/08 12:33:55;;;;;;;2.50;2.30;;;20.80;61.60;;;;;;5052195;28;20674;-57
2022/09/08 12:36:44;;;;;;;3.60;2.90;;;20.90;61.80;;;;;;5045655;28;20082;-56
2022/09/08 12:39:43;;;;;;;3.65;3.08;;;20.90;62.00;;;;;;5048220;28;20036;-57
2022/09/08 12:42:34;;;;;;;2.88;2.60;;;20.80;62.10;;;;;;5050823;28;20448;-56
2022/09/08 12:45:39;;;;;;;2.80;2.58;;;20.70;62.10;;;;;;5053918;28;20055;-54
2022/09/08 12:48:07;;;;;;;3.83;2.75;;;20.70;62.50;;;;;;5034765;28;20044;-55
2022/09/08 12:51:02;;;;;;;3.30;2.60;;;20.60;62.40;;;;;;5048472;28;20127;-53
2022/09/08 12:53:31;;;;;;;3.15;2.67;;;20.50;62.80;;;;;;5034471;28;20758;-57
2022/09/08 12:56:46;;;;;;;2.65;2.33;;;20.50;62.70;;;;;;5055679;28;21444;-56
2022/09/08 12:59:30;;;;;;;2.78;2.30;;;20.40;62.90;;;;;;4972078;28;20038;-53
2022/09/08 13:02:20;;;;;;;6.53;2.70;;;20.40;62.80;;;;;;5053537;28;20500;-55
2022/09/08 13:04:59;;;;;;;2.95;2.60;;;20.40;63.10;;;;;;5051642;28;20068;-54
2022/09/08 13:07:54;;;;;;;3.33;2.70;;;20.40;63.30;;;;;;5051548;28;20055;-55
2022/09/08 13:10:33;;;;;;;2.97;2.50;;;20.40;63.60;;;;;;5012564;28;20410;-55
2022/09/08 13:13:34;;;;;;;3.47;2.80;;;20.30;63.60;;;;;;5057069;28;21397;-54
2022/09/08 13:16:06;;;;;;;3.10;2.40;;;20.30;63.80;;;;;;5044615;28;20086;-56
2022/09/08 13:18:39;;;;;;;2.42;2.20;;;20.30;63.90;;;;;;5047563;28;21114;-53
2022/09/08 13:21:32;;;;;;;3.85;2.55;;;20.30;64.10;;;;;;5043130;28;20462;-55
2022/09/08 13:24:14;;;;;;;3.17;2.70;;;20.40;64.30;;;;;;5048454;28;20380;-53
2022/09/08 13:27:07;;;;;;;2.78;2.50;;;20.40;64.40;;;;;;5050037;28;20039;-56
2022/09/08 13:29:44;;;;;;;3.08;2.30;;;20.40;64.60;;;;;;5054247;28;20028;-53
2022/09/08 13:32:33;;;;;;;3.22;2.85;;;20.40;64.80;;;;;;5045214;28;20032;-55
2022/09/08 13:35:23;;;;;;;3.63;2.88;;;20.40;65.00;;;;;;5056028;28;20033;-55
2022/09/08 13:37:57;;;;;;;3.17;2.88;;;20.40;65.30;;;;;;5047415;28;20098;-56